Time;durP1;ratioP1;P1;durP2;ratioP2;P2;SDS_P1;SDS_P2;PMS_P1;PMS_P2;Temp;Humidity;BMP_temperature;BMP_pressure;BME280_temperature;BME280_humidity;BME280_pressure;Samples;Min_cycle;Max_cycle;Signal;HPM_P1;HPM_P2
2022/06/29 00:00:21;;;;;;;5.22;3.05;;;;;;;17.23;65.73;101507.94;5012516;28;20033;-82
2022/06/29 00:02:47;;;;;;;5.30;3.13;;;;;;;17.17;66.36;101516.44;5012610;28;20033;-82
2022/06/29 00:05:15;;;;;;;9.30;3.17;;;;;;;17.16;66.16;101514.75;5012075;28;20061;-82
2022/06/29 00:07:42;;;;;;;6.05;3.35;;;;;;;17.09;66.57;101513.63;5011140;28;20030;-82
2022/06/29 00:10:09;;;;;;;7.85;3.03;;;;;;;17.05;66.82;101510.44;5013210;28;20018;-82
2022/06/29 00:12:39;;;;;;;7.07;3.33;;;;;;;17.02;66.93;101508.03;5007811;28;20026;-82
2022/06/29 00:15:05;;;;;;;5.95;3.42;;;;;;;16.98;67.07;101511.13;5010072;28;20029;-82
2022/06/29 00:17:37;;;;;;;10.50;3.25;;;;;;;16.92;67.05;101501.88;5012476;28;20050;-82
2022/06/29 00:20:05;;;;;;;6.10;3.35;;;;;;;16.90;67.49;101503.84;5012240;28;20033;-82
2022/06/29 00:22:31;;;;;;;7.00;3.20;;;;;;;16.89;67.38;101497.69;5023542;28;20037;-82
2022/06/29 00:24:57;;;;;;;6.70;3.63;;;;;;;16.86;67.69;101497.97;5016882;28;20022;-82
2022/06/29 00:27:22;;;;;;;8.57;3.30;;;;;;;16.81;67.72;101494.88;5012818;28;20041;-82
2022/06/29 00:29:48;;;;;;;5.70;3.10;;;;;;;16.75;68.16;101490.09;5008030;28;20214;-82
2022/06/29 00:32:14;;;;;;;7.20;3.40;;;;;;;16.72;68.30;101495.69;5011545;28;20104;-82
2022/06/29 00:34:40;;;;;;;6.65;3.20;;;;;;;16.68;68.54;101496.94;5011776;28;20463;-83
2022/06/29 00:37:06;;;;;;;7.22;3.47;;;;;;;16.66;68.69;101496.25;5013246;28;20029;-82
2022/06/29 00:39:33;;;;;;;7.97;3.88;;;;;;;16.59;69.44;101492.41;5013208;28;20093;-82
2022/06/29 00:41:58;;;;;;;5.13;3.22;;;;;;;16.56;69.08;101490.03;5010842;28;20053;-82
2022/06/29 00:44:24;;;;;;;5.57;3.05;;;;;;;16.52;69.29;101489.47;5013154;28;20483;-82
2022/06/29 00:47:04;;;;;;;9.85;3.78;;;;;;;16.50;69.42;101490.59;5003950;28;20433;-82
2022/06/29 00:49:34;;;;;;;6.03;3.35;;;;;;;16.44;69.43;101491.97;5005788;28;20370;-83
2022/06/29 00:52:11;;;;;;;5.93;3.40;;;;;;;16.40;69.67;101484.38;5028754;28;20072;-82
2022/06/29 00:54:39;;;;;;;8.35;3.70;;;;;;;16.34;70.80;101479.63;5017513;28;20044;-82
2022/06/29 00:57:21;;;;;;;9.98;3.92;;;;;;;16.33;69.93;101477.94;5036103;28;20061;-82
2022/06/29 00:59:49;;;;;;;7.90;3.83;;;;;;;16.29;70.31;101480.03;5021416;28;20061;-82
2022/06/29 01:02:17;;;;;;;5.30;4.03;;;;;;;16.19;70.42;101471.19;5030096;28;20112;-82
2022/06/29 01:04:44;;;;;;;7.25;3.80;;;;;;;16.15;70.99;101475.94;5023379;28;20018;-83
2022/06/29 01:07:13;;;;;;;6.55;3.92;;;;;;;16.05;71.63;101464.44;5023243;28;20055;-83
2022/06/29 01:09:40;;;;;;;7.93;3.75;;;;;;;16.05;71.77;101469.75;5015049;28;20051;-83
2022/06/29 01:12:06;;;;;;;7.15;3.63;;;;;;;16.00;71.93;101469.28;5015870;28;20041;-82
2022/06/29 01:14:31;;;;;;;6.55;4.05;;;;;;;16.02;71.98;101470.03;5030972;28;20544;-83
2022/06/29 01:16:57;;;;;;;7.03;3.90;;;;;;;16.01;71.79;101472.78;5021533;28;20566;-83
2022/06/29 01:19:23;;;;;;;5.78;3.80;;;;;;;15.99;71.98;101462.31;5025364;28;20040;-83
2022/06/29 01:21:51;;;;;;;5.97;3.95;;;;;;;15.97;72.33;101474.88;5018535;28;20079;-83
2022/06/29 01:24:19;;;;;;;11.40;4.43;;;;;;;15.87;72.44;101474.81;5015278;28;20029;-82
2022/06/29 01:26:44;;;;;;;5.75;4.18;;;;;;;15.85;72.48;101470.63;5022680;28;20474;-83
2022/06/29 01:29:09;;;;;;;8.57;4.07;;;;;;;15.83;72.62;101465.44;5023333;28;20025;-83
2022/06/29 01:31:35;;;;;;;12.00;4.40;;;;;;;15.81;72.98;101461.25;5015846;28;20018;-83
2022/06/29 01:34:01;;;;;;;6.43;3.92;;;;;;;15.82;72.93;101457.63;5026914;28;20025;-83
2022/06/29 01:36:26;;;;;;;5.93;4.15;;;;;;;15.75;73.67;101461.78;5017768;28;20036;-83
2022/06/29 01:38:52;;;;;;;6.35;4.18;;;;;;;15.70;73.53;101458.69;5021587;28;20025;-82
2022/06/29 01:41:17;;;;;;;6.00;4.20;;;;;;;15.66;73.73;101469.56;5018610;28;20026;-83
2022/06/29 01:43:42;;;;;;;6.80;4.07;;;;;;;15.65;74.75;101461.75;5026872;28;20017;-82
2022/06/29 01:46:08;;;;;;;8.35;4.13;;;;;;;15.65;74.27;101454.63;5015620;28;20421;-82
2022/06/29 01:48:34;;;;;;;7.13;4.50;;;;;;;15.65;74.28;101457.28;5020620;28;20095;-83
2022/06/29 01:50:59;;;;;;;5.10;4.13;;;;;;;15.64;74.23;101454.75;5020867;28;20500;-83
2022/06/29 01:53:25;;;;;;;6.32;4.50;;;;;;;15.55;74.46;101440.41;5027580;28;20080;-83
2022/06/29 01:55:51;;;;;;;5.30;4.30;;;;;;;15.55;74.94;101440.41;5011085;28;20425;-83
2022/06/29 01:58:17;;;;;;;6.57;4.45;;;;;;;15.48;75.49;101447.22;5010807;28;20029;-83
2022/06/29 02:00:44;;;;;;;7.50;4.47;;;;;;;15.49;75.07;101446.25;5005080;28;20104;-83
2022/06/29 02:03:09;;;;;;;7.85;4.88;;;;;;;15.54;75.19;101448.50;5025251;28;20026;-83
2022/06/29 02:05:35;;;;;;;6.00;4.03;;;;;;;15.47;75.81;101442.03;5022867;28;20048;-83
2022/06/29 02:08:01;;;;;;;6.20;5.13;;;;;;;15.46;75.55;101446.50;5019236;28;20036;-83
2022/06/29 02:10:26;;;;;;;7.15;4.72;;;;;;;15.47;75.75;101442.88;5004343;28;20466;-83
2022/06/29 02:12:51;;;;;;;6.68;4.47;;;;;;;15.40;76.73;101444.38;5039481;28;20693;-82
2022/06/29 02:15:17;;;;;;;7.47;4.70;;;;;;;15.38;77.13;101442.81;5014124;28;20029;-83
2022/06/29 02:17:43;;;;;;;7.05;4.75;;;;;;;15.38;77.21;101443.66;5023311;28;20121;-83
2022/06/29 02:20:11;;;;;;;4.85;4.35;;;;;;;15.30;77.54;101451.44;5018221;28;20036;-83
2022/06/29 02:22:37;;;;;;;7.50;4.57;;;;;;;15.24;77.87;101441.34;5044289;28;20413;-83
2022/06/29 02:25:03;;;;;;;7.65;4.70;;;;;;;15.21;78.19;101441.56;5014606;28;20030;-83
2022/06/29 02:27:31;;;;;;;11.90;5.43;;;;;;;15.26;78.18;101439.41;5014510;28;20017;-83
2022/06/29 02:29:57;;;;;;;8.25;5.50;;;;;;;15.23;77.95;101434.38;5019541;28;20029;-83
2022/06/29 02:35:06;;;;;;;11.10;5.93;;;;;;;15.25;77.45;101440.38;5026749;28;20044;-83
2022/06/29 02:37:31;;;;;;;8.70;6.15;;;;;;;15.26;77.14;101439.41;5015181;28;20017;-82
2022/06/29 02:39:57;;;;;;;9.93;6.10;;;;;;;15.30;77.01;101438.19;5030318;28;20029;-82
2022/06/29 02:42:24;;;;;;;8.68;5.90;;;;;;;15.31;76.64;101431.91;5034324;28;20021;-82
2022/06/29 02:44:52;;;;;;;12.32;6.68;;;;;;;15.32;76.48;101433.59;5029233;28;20052;-82
2022/06/29 02:47:18;;;;;;;10.43;6.10;;;;;;;15.34;76.38;101429.00;5025802;28;20473;-82
2022/06/29 02:49:44;;;;;;;9.20;6.10;;;;;;;15.34;76.18;101426.34;5015648;28;20033;-82
2022/06/29 02:52:09;;;;;;;9.32;5.75;;;;;;;15.40;77.43;101431.13;5019963;28;20084;-82
2022/06/29 02:54:34;;;;;;;9.32;6.00;;;;;;;15.39;76.47;101425.94;5027024;28;20540;-82
2022/06/29 02:57:00;;;;;;;9.52;6.22;;;;;;;15.42;76.29;101423.03;5028502;28;20053;-82
2022/06/29 02:59:25;;;;;;;7.10;6.13;;;;;;;15.39;76.81;101418.81;5020475;28;20404;-82
2022/06/29 03:01:51;;;;;;;8.52;6.00;;;;;;;15.38;76.39;101417.16;5021777;28;20026;-82
2022/06/29 03:04:16;;;;;;;11.73;6.10;;;;;;;15.36;76.91;101413.78;5021176;28;20481;-82
2022/06/29 03:06:41;;;;;;;9.07;5.57;;;;;;;15.37;76.56;101423.44;5014539;28;20040;-82
2022/06/29 03:09:12;;;;;;;13.05;6.38;;;;;;;15.36;76.76;101413.78;5009415;28;20513;-82
2022/06/29 03:11:37;;;;;;;8.05;6.05;;;;;;;15.37;76.75;101404.84;5008825;28;20028;-82
2022/06/29 03:14:03;;;;;;;8.38;6.60;;;;;;;15.36;76.34;101411.13;5009035;28;20029;-82
2022/06/29 03:16:32;;;;;;;6.65;6.03;;;;;;;15.40;77.45;101411.72;5008307;28;20049;-82
2022/06/29 03:18:57;;;;;;;11.52;6.78;;;;;;;15.37;76.32;101407.50;5007896;28;20485;-83
2022/06/29 03:21:22;;;;;;;7.75;6.53;;;;;;;15.41;76.28;101400.97;5009515;28;20097;-82
2022/06/29 03:23:48;;;;;;;10.20;6.63;;;;;;;15.38;76.13;101406.53;5008601;28;20163;-82
2022/06/29 03:26:13;;;;;;;11.63;6.00;;;;;;;15.36;76.91;101403.19;5007761;28;20033;-83
2022/06/29 03:28:38;;;;;;;10.07;6.45;;;;;;;15.38;76.33;101398.59;5009932;28;20029;-83
2022/06/29 03:31:05;;;;;;;13.20;6.55;;;;;;;15.38;76.17;101401.25;5008670;28;20492;-83
2022/06/29 03:33:31;;;;;;;8.23;5.97;;;;;;;15.37;75.98;101394.25;5016092;28;20036;-83
2022/06/29 03:35:57;;;;;;;9.10;6.53;;;;;;;15.30;76.69;101393.09;5019516;28;20021;-82
2022/06/29 03:38:26;;;;;;;11.38;6.18;;;;;;;15.27;76.86;101388.91;5020082;28;20091;-82
2022/06/29 03:40:51;;;;;;;9.95;6.55;;;;;;;15.27;77.02;101385.41;5013291;28;20084;-83
2022/06/29 03:43:17;;;;;;;7.43;6.57;;;;;;;15.25;77.41;101385.53;5007697;28;20030;-82
2022/06/29 03:45:42;;;;;;;11.27;6.47;;;;;;;15.25;77.02;101384.69;5017900;28;20030;-82
2022/06/29 03:48:08;;;;;;;10.00;7.10;;;;;;;15.24;77.58;101388.31;5010055;28;20049;-82
2022/06/29 03:50:35;;;;;;;10.90;7.13;;;;;;;15.24;77.79;101378.56;5013946;28;20696;-83
2022/06/29 03:53:00;;;;;;;10.32;6.30;;;;;;;15.28;77.55;101381.78;5023978;28;20025;-83
2022/06/29 03:55:25;;;;;;;9.93;6.65;;;;;;;15.24;77.45;101375.06;5014618;28;20034;-83
2022/06/29 03:57:51;;;;;;;9.18;6.30;;;;;;;15.28;78.42;101379.97;5026962;28;20022;-83
2022/06/29 04:00:17;;;;;;;9.27;6.35;;;;;;;15.30;77.85;101369.25;5016277;28;20364;-83
2022/06/29 04:02:42;;;;;;;10.27;6.45;;;;;;;15.33;78.67;101376.94;5005668;28;20056;-82
2022/06/29 04:05:08;;;;;;;10.55;6.47;;;;;;;15.52;78.01;101374.38;5016065;28;20021;-82
2022/06/29 04:07:35;;;;;;;10.35;6.28;;;;;;;16.10;76.30;101377.28;5006558;28;20034;-83
2022/06/29 04:10:00;;;;;;;9.38;6.13;;;;;;;16.86;73.39;101362.41;5009613;28;20656;-83
2022/06/29 04:12:36;;;;;;;12.43;5.70;;;;;;;17.90;70.78;101363.22;5010752;28;20057;-82
2022/06/29 04:15:04;;;;;;;6.43;5.13;;;;;;;18.72;66.62;101363.09;5018737;28;20101;-82
2022/06/29 04:17:30;;;;;;;6.38;5.30;;;;;;;19.23;64.16;101366.00;5004122;28;20495;-83
2022/06/29 04:19:59;;;;;;;7.15;4.80;;;;;;;19.81;61.95;101359.97;5010424;28;20048;-82
2022/06/29 04:22:24;;;;;;;9.20;5.43;;;;;;;19.66;62.05;101359.75;5011873;28;20667;-82
2022/06/29 04:24:50;;;;;;;7.13;4.70;;;;;;;19.58;61.43;101349.03;5018389;28;20022;-83
2022/06/29 04:27:16;;;;;;;8.63;5.03;;;;;;;19.03;62.76;101354.69;5004440;28;20025;-83
2022/06/29 04:29:41;;;;;;;7.38;5.28;;;;;;;18.81;64.08;101353.31;5006306;28;20096;-83
2022/06/29 04:32:07;;;;;;;7.55;5.18;;;;;;;18.48;64.47;101344.22;5019949;28;20162;-83
2022/06/29 04:34:32;;;;;;;8.63;5.15;;;;;;;18.02;66.22;101356.72;5017066;28;20394;-83
2022/06/29 04:36:58;;;;;;;9.98;6.25;;;;;;;17.73;66.82;101358.69;5013117;28;20120;-83
2022/06/29 04:39:24;;;;;;;10.80;5.93;;;;;;;17.68;68.15;101363.63;5011736;28;20030;-83
2022/06/29 04:41:52;;;;;;;13.85;6.57;;;;;;;17.60;68.26;101360.78;5011037;28;20031;-83
2022/06/29 04:44:17;;;;;;;10.40;6.47;;;;;;;17.30;69.42;101362.75;5022706;28;20032;-83
2022/06/29 04:46:42;;;;;;;8.65;6.18;;;;;;;17.27;69.74;101362.19;5019564;28;20037;-83
2022/06/29 04:49:09;;;;;;;8.88;6.20;;;;;;;17.33;70.68;101357.13;5020043;28;20101;-84
2022/06/29 04:51:35;;;;;;;8.50;5.80;;;;;;;17.26;69.70;101358.69;5012499;28;20038;-83
2022/06/29 04:54:02;;;;;;;9.77;6.18;;;;;;;17.22;69.36;101360.81;5007936;28;20018;-83
2022/06/29 04:56:32;;;;;;;7.55;5.80;;;;;;;17.19;70.03;101361.06;5009560;28;20033;-83
2022/06/29 04:58:59;;;;;;;8.77;6.03;;;;;;;17.21;70.53;101363.59;5008452;28;20030;-83
2022/06/29 05:01:26;;;;;;;11.10;6.35;;;;;;;17.17;69.86;101359.53;5025514;28;20037;-83
2022/06/29 05:03:52;;;;;;;8.52;6.70;;;;;;;17.10;69.88;101361.94;5011766;28;20590;-83
2022/06/29 05:06:20;;;;;;;9.32;6.60;;;;;;;17.12;70.52;101361.78;5021744;28;20088;-83
2022/06/29 05:08:46;;;;;;;10.05;6.38;;;;;;;17.11;70.36;101352.97;5007870;28;20032;-83
2022/06/29 05:11:14;;;;;;;10.77;6.18;;;;;;;17.11;70.22;101357.44;5020776;28;20025;-82
2022/06/29 05:13:41;;;;;;;9.50;6.22;;;;;;;17.05;69.75;101355.38;5024191;28;20025;-82
2022/06/29 05:16:07;;;;;;;8.77;6.10;;;;;;;17.05;70.94;101342.91;5009323;28;20533;-82
2022/06/29 05:18:33;;;;;;;12.07;6.28;;;;;;;17.06;71.64;101343.75;5012908;28;20026;-83
2022/06/29 05:20:59;;;;;;;8.77;6.20;;;;;;;17.01;71.85;101346.84;5012901;28;20014;-83
2022/06/29 05:23:30;;;;;;;7.82;5.60;;;;;;;17.05;71.81;101344.75;5015092;28;20044;-82
2022/06/29 05:25:55;;;;;;;9.35;5.75;;;;;;;17.03;71.58;101341.38;5013570;28;20470;-82
2022/06/29 05:28:22;;;;;;;7.97;5.40;;;;;;;17.08;71.11;101347.09;5013978;28;20018;-83
2022/06/29 05:30:47;;;;;;;9.70;6.25;;;;;;;17.13;71.49;101345.69;5009096;28;20030;-82
2022/06/29 05:33:12;;;;;;;14.38;6.30;;;;;;;17.13;72.42;101343.03;5012886;28;20033;-82
2022/06/29 05:35:38;;;;;;;11.48;6.50;;;;;;;17.22;72.01;101336.88;5024679;28;20501;-81
2022/06/29 05:38:08;;;;;;;12.23;6.30;;;;;;;17.32;70.16;101339.50;5011689;28;20018;-82
2022/06/29 05:40:33;;;;;;;8.45;5.75;;;;;;;17.38;70.16;101344.22;5011145;28;20054;-82
2022/06/29 05:42:59;;;;;;;14.38;6.15;;;;;;;17.50;71.03;101343.06;5011013;28;20096;-82
2022/06/29 05:45:31;;;;;;;12.45;6.50;;;;;;;17.51;70.14;101347.41;5012979;28;20092;-82
2022/06/29 05:47:56;;;;;;;9.88;5.93;;;;;;;17.65;69.76;101337.28;5011361;28;20037;-83
2022/06/29 05:50:23;;;;;;;9.10;5.93;;;;;;;17.74;69.50;101334.59;5011596;28;20584;-82
2022/06/29 05:52:53;;;;;;;12.27;6.03;;;;;;;17.79;69.09;101329.66;5012767;28;20894;-82
2022/06/29 05:55:18;;;;;;;9.77;5.78;;;;;;;17.88;69.84;101333.25;5014645;28;20032;-82
2022/06/29 05:57:45;;;;;;;8.88;5.55;;;;;;;17.90;68.97;101333.94;5016019;28;20025;-83
2022/06/29 06:00:11;;;;;;;9.73;5.50;;;;;;;18.04;69.03;101336.09;5022718;28;20116;-83
2022/06/29 06:02:37;;;;;;;10.98;6.05;;;;;;;18.08;69.62;101337.47;5011257;28;20375;-83
2022/06/29 06:05:06;;;;;;;13.15;5.80;;;;;;;18.20;69.01;101334.59;5010569;28;20072;-83
2022/06/29 06:07:34;;;;;;;8.07;5.30;;;;;;;18.25;68.32;101340.31;5011763;28;20110;-83
2022/06/29 06:10:00;;;;;;;6.82;4.22;;;;;;;18.26;67.68;101342.81;5012231;28;20367;-83
2022/06/29 06:12:25;;;;;;;7.07;4.15;;;;;;;18.42;65.06;101336.81;5010926;28;20036;-83
2022/06/29 06:14:51;;;;;;;5.13;4.00;;;;;;;18.46;65.06;101339.03;5010389;28;20426;-83
2022/06/29 06:17:17;;;;;;;5.78;3.35;;;;;;;18.54;64.25;101340.94;5026834;28;20084;-82
2022/06/29 06:19:43;;;;;;;8.77;3.42;;;;;;;18.60;64.23;101334.97;5008806;28;20025;-83
2022/06/29 06:22:08;;;;;;;7.30;3.60;;;;;;;18.73;62.69;101330.13;5018833;28;20067;-83
2022/06/29 06:24:34;;;;;;;5.25;3.05;;;;;;;18.86;63.54;101331.56;5029985;28;20035;-83
2022/06/29 06:27:00;;;;;;;5.07;2.80;;;;;;;18.92;63.00;101333.59;5028664;28;20065;-83
2022/06/29 06:29:25;;;;;;;7.35;3.00;;;;;;;18.99;61.37;101332.81;5010366;28;20061;-83
2022/06/29 06:31:54;;;;;;;6.72;2.72;;;;;;;19.06;62.08;101333.03;5024735;28;20121;-82
2022/06/29 06:34:23;;;;;;;4.50;2.78;;;;;;;19.15;62.08;101334.75;5002026;28;20430;-82
2022/06/29 06:36:48;;;;;;;6.57;2.80;;;;;;;19.22;61.90;101327.81;5009551;28;20034;-82
2022/06/29 06:39:14;;;;;;;8.63;2.80;;;;;;;19.31;60.68;101332.19;5009455;28;20036;-82
2022/06/29 06:41:39;;;;;;;9.15;2.80;;;;;;;19.32;61.81;101323.19;5009462;28;20022;-82
2022/06/29 06:44:04;;;;;;;8.00;2.85;;;;;;;19.45;61.30;101324.56;5010020;28;20033;-83
2022/06/29 06:46:30;;;;;;;8.05;2.60;;;;;;;19.54;61.71;101331.66;5009063;28;20025;-83
2022/06/29 06:48:55;;;;;;;5.68;3.05;;;;;;;19.64;60.42;101337.72;5010414;28;20530;-83
2022/06/29 06:51:22;;;;;;;6.30;2.78;;;;;;;19.71;61.13;101328.06;5007262;28;20033;-83
2022/06/29 06:53:49;;;;;;;7.22;2.67;;;;;;;19.85;60.53;101330.13;5008182;28;20053;-82
2022/06/29 06:56:15;;;;;;;5.20;2.63;;;;;;;19.86;59.96;101334.47;5025916;28;20030;-83
2022/06/29 06:58:40;;;;;;;4.63;2.70;;;;;;;20.09;59.15;101328.53;5014545;28;20044;-84
2022/06/29 07:01:07;;;;;;;6.75;2.78;;;;;;;20.16;58.41;101333.06;5019624;28;20080;-81
2022/06/29 07:03:36;;;;;;;7.13;2.65;;;;;;;20.31;58.10;101330.56;5009509;28;20058;-83
2022/06/29 07:06:04;;;;;;;6.05;2.60;;;;;;;20.49;57.01;101328.63;5019815;28;20505;-82
2022/06/29 07:08:34;;;;;;;5.28;2.22;;;;;;;20.75;55.69;101324.94;5014863;28;20025;-82
2022/06/29 07:11:01;;;;;;;6.57;2.70;;;;;;;20.98;54.86;101339.31;5009515;28;20393;-81
2022/06/29 07:13:27;;;;;;;4.30;2.28;;;;;;;21.26;54.50;101324.56;5015192;28;20036;-81
2022/06/29 07:15:53;;;;;;;4.95;2.40;;;;;;;21.46;53.56;101324.16;5020310;28;20057;-81
2022/06/29 07:18:18;;;;;;;5.38;2.30;;;;;;;21.80;53.70;101323.84;5020688;28;20670;-80
2022/06/29 07:20:44;;;;;;;9.00;2.55;;;;;;;21.95;51.92;101327.44;5000436;28;20104;-81
2022/06/29 07:23:10;;;;;;;3.97;1.85;;;;;;;22.23;50.95;101322.47;5012771;28;20080;-80
2022/06/29 07:25:35;;;;;;;3.88;2.00;;;;;;;22.49;50.15;101317.59;5025395;28;20674;-80
2022/06/29 07:28:01;;;;;;;3.58;2.22;;;;;;;22.79;51.38;101321.16;5015550;28;20026;-80
2022/06/29 07:30:26;;;;;;;5.93;2.10;;;;;;;23.02;50.07;101315.78;5004466;28;20022;-80
2022/06/29 07:32:52;;;;;;;7.90;2.40;;;;;;;23.30;48.49;101318.69;5012100;28;20450;-80
2022/06/29 07:35:18;;;;;;;4.95;2.22;;;;;;;23.48;47.60;101317.47;5005753;28;20441;-80
2022/06/29 07:37:43;;;;;;;3.85;1.90;;;;;;;23.62;47.65;101309.44;5014790;28;20075;-80
2022/06/29 07:40:09;;;;;;;6.65;1.80;;;;;;;23.84;46.19;101312.19;5004593;28;20482;-80
2022/06/29 07:42:35;;;;;;;5.10;2.20;;;;;;;24.09;46.65;101313.50;5011002;28;20034;-80
2022/06/29 07:45:02;;;;;;;3.42;1.80;;;;;;;24.42;46.19;101307.66;5020225;28;20022;-80
2022/06/29 07:47:30;;;;;;;3.55;2.08;;;;;;;24.57;45.49;101303.88;5015768;28;20022;-80
2022/06/29 07:49:56;;;;;;;2.35;1.40;;;;;;;24.64;45.12;101306.59;4999791;28;20100;-80
2022/06/29 07:52:21;;;;;;;5.30;1.70;;;;;;;24.82;44.33;101298.91;5004249;28;20117;-80
2022/06/29 07:54:47;;;;;;;3.85;1.60;;;;;;;24.91;44.11;101297.72;5006923;28;20028;-80
2022/06/29 07:57:12;;;;;;;4.80;1.70;;;;;;;25.03;43.84;101289.94;5008828;28;20052;-80
2022/06/29 07:59:38;;;;;;;4.30;1.90;;;;;;;25.28;43.66;101296.53;5009482;28;20065;-80
2022/06/29 08:02:04;;;;;;;4.22;1.60;;;;;;;25.39;42.92;101294.28;5007673;28;20041;-80
2022/06/29 08:04:29;;;;;;;4.78;1.85;;;;;;;25.46;43.51;101296.00;5006186;28;20490;-80
2022/06/29 08:06:55;;;;;;;3.25;1.38;;;;;;;25.71;43.35;101290.13;5007460;28;20056;-80
2022/06/29 08:09:24;;;;;;;2.47;1.40;;;;;;;26.02;41.72;101301.22;4996266;28;20053;-80
2022/06/29 08:11:51;;;;;;;4.18;1.67;;;;;;;26.05;41.93;101287.31;5001419;28;20025;-80
2022/06/29 08:14:16;;;;;;;5.32;1.73;;;;;;;26.31;41.95;101285.69;5006940;28;20113;-80
2022/06/29 08:16:42;;;;;;;5.85;1.60;;;;;;;26.44;41.38;101283.06;5016054;28;20543;-80
2022/06/29 08:19:07;;;;;;;3.67;1.30;;;;;;;26.60;41.02;101284.50;5009392;28;20029;-80
2022/06/29 08:21:37;;;;;;;2.55;1.20;;;;;;;26.70;40.38;101288.44;5013855;28;20045;-80
2022/06/29 08:24:02;;;;;;;5.38;1.58;;;;;;;26.72;41.28;101280.94;5018537;28;20037;-80
2022/06/29 08:26:27;;;;;;;2.75;1.40;;;;;;;26.99;39.91;101283.66;5008482;28;20025;-80
2022/06/29 08:28:53;;;;;;;3.92;1.25;;;;;;;26.97;39.33;101277.59;4996121;28;20395;-80
2022/06/29 08:31:18;;;;;;;1.98;1.20;;;;;;;27.14;39.76;101273.44;5026964;28;20048;-80
2022/06/29 08:33:45;;;;;;;3.20;1.40;;;;;;;27.18;37.95;101274.66;5013301;28;20068;-80
2022/06/29 08:36:10;;;;;;;3.92;1.27;;;;;;;27.31;38.10;101281.91;5006580;28;20101;-80
2022/06/29 08:38:36;;;;;;;2.80;1.33;;;;;;;27.29;39.16;101276.72;5014526;28;20113;-82
2022/06/29 08:41:02;;;;;;;3.65;1.40;;;;;;;27.38;39.64;101275.44;5019122;28;20033;-80
2022/06/29 08:43:27;;;;;;;1.83;1.00;;;;;;;27.48;38.30;101272.28;5020226;28;20385;-79
2022/06/29 08:45:53;;;;;;;4.72;1.50;;;;;;;27.45;37.64;101273.53;5028351;28;20051;-81
2022/06/29 08:48:22;;;;;;;2.63;1.00;;;;;;;27.60;37.17;101278.66;5013232;28;20030;-80
2022/06/29 08:50:51;;;;;;;3.20;1.17;;;;;;;27.37;36.42;101268.38;5016248;28;20021;-80
2022/06/29 08:53:17;;;;;;;3.55;1.10;;;;;;;27.19;36.78;101270.91;5015973;28;20478;-80
2022/06/29 08:55:48;;;;;;;2.90;1.20;;;;;;;27.02;37.26;101275.97;5018206;28;20031;-80
2022/06/29 08:58:18;;;;;;;6.88;1.30;;;;;;;26.88;37.91;101274.28;5017209;28;20042;-81
2022/06/29 09:00:44;;;;;;;2.10;1.15;;;;;;;26.74;38.44;101267.22;5026718;28;20084;-80
2022/06/29 09:03:15;;;;;;;1.95;1.42;;;;;;;26.58;39.93;101279.31;5017759;28;20061;-82
2022/06/29 09:05:47;;;;;;;3.22;1.30;;;;;;;26.44;39.16;101272.25;5025183;28;20028;-80
2022/06/29 09:08:15;;;;;;;3.00;1.30;;;;;;;26.31;38.72;101278.41;5029117;28;20025;-80
2022/06/29 09:10:40;;;;;;;3.67;1.38;;;;;;;26.23;39.40;101279.44;5019246;28;20279;-79
2022/06/29 09:13:08;;;;;;;5.05;1.35;;;;;;;26.11;39.08;101278.41;5029554;28;20029;-79
2022/06/29 09:15:34;;;;;;;2.22;1.05;;;;;;;26.13;40.35;101276.34;5014895;28;20070;-81
2022/06/29 09:18:01;;;;;;;3.92;1.40;;;;;;;26.08;40.17;101276.13;5022774;28;20093;-83
2022/06/29 09:20:42;;;;;;;2.17;1.10;;;;;;;26.34;40.58;101274.50;5024789;28;20029;-81
2022/06/29 09:23:10;;;;;;;4.00;1.10;;;;;;;26.56;40.52;101275.97;5014297;28;20030;-81
2022/06/29 09:25:41;;;;;;;2.17;1.20;;;;;;;26.71;38.84;101263.09;5026343;28;20512;-81
2022/06/29 09:28:24;;;;;;;2.92;1.20;;;;;;;27.03;39.27;101279.50;5017098;28;20026;-79
2022/06/29 09:30:50;;;;;;;;;;;;;;;27.25;40.02;101270.09;5019814;28;20017;-78
2022/06/29 09:33:16;;;;;;;3.08;1.00;;;;;;;27.46;36.02;101261.69;5020367;28;19974;-78
2022/06/29 09:35:42;;;;;;;2.88;1.15;;;;;;;27.65;38.20;101267.25;5000971;28;20046;-78
2022/06/29 09:38:19;;;;;;;3.45;1.20;;;;;;;27.84;36.31;101260.91;5001950;28;20104;-78
2022/06/29 09:41:01;;;;;;;4.93;1.17;;;;;;;28.04;36.59;101269.75;5017067;28;20022;-78
2022/06/29 09:43:27;;;;;;;;;;;;;;;28.26;37.10;101267.50;5001649;28;20597;-79
2022/06/29 09:45:57;;;;;;;2.80;1.20;;;;;;;28.22;33.98;101270.84;5003431;28;19968;-79
2022/06/29 09:48:24;;;;;;;2.20;1.02;;;;;;;28.28;34.94;101264.59;5001534;28;20506;-79
2022/06/29 09:50:52;;;;;;;1.83;0.98;;;;;;;28.12;34.21;101265.09;4999520;28;20021;-78
2022/06/29 09:53:19;;;;;;;5.97;1.10;;;;;;;28.27;34.65;101260.22;5002174;28;20033;-78
2022/06/29 09:55:48;;;;;;;1.17;0.93;;;;;;;28.48;35.08;101264.44;5005374;28;20037;-78
2022/06/29 09:58:18;;;;;;;2.28;1.08;;;;;;;28.64;34.31;101258.47;5017733;28;20034;-80
2022/06/29 10:03:33;;;;;;;6.50;1.25;;;;;;;28.89;35.18;101255.75;5002291;28;20048;-81
2022/06/29 10:06:05;;;;;;;4.55;1.40;;;;;;;28.99;34.10;101254.19;5001263;28;20034;-81
2022/06/29 10:08:32;;;;;;;1.27;1.00;;;;;;;29.11;32.75;101253.41;5013784;28;20018;-81
2022/06/29 10:13:39;;;;;;;3.53;1.40;;;;;;;29.08;33.39;101257.41;5004601;28;20072;-81
2022/06/29 10:13:56;;;;;;;4.32;1.25;;;;;;;29.36;34.15;101256.06;5001890;28;20121;-80
2022/06/29 10:16:42;;;;;;;3.15;1.10;;;;;;;29.27;33.71;101256.38;5001144;28;20066;-80
2022/06/29 10:19:35;;;;;;;5.20;1.20;;;;;;;29.60;34.08;101250.53;5005986;28;20032;-80
2022/06/29 10:22:01;;;;;;;3.42;1.20;;;;;;;29.60;33.98;101244.28;5002417;28;20044;-85
2022/06/29 10:24:31;;;;;;;3.30;1.30;;;;;;;29.30;33.15;101244.25;5001551;28;20056;-85
2022/06/29 10:26:56;;;;;;;2.05;1.20;;;;;;;29.58;34.17;101249.13;5002005;28;20038;-85
2022/06/29 10:29:21;;;;;;;4.03;1.20;;;;;;;29.60;33.12;101242.41;5000972;28;20031;-85
2022/06/29 10:34:34;;;;;;;1.90;1.03;;;;;;;28.97;35.01;101236.50;5004010;28;20390;-85
2022/06/29 10:37:02;;;;;;;2.65;1.20;;;;;;;28.78;34.55;101232.06;5000636;28;20362;-85
2022/06/29 10:39:48;;;;;;;2.38;1.20;;;;;;;28.99;34.40;101237.91;5002081;28;20053;-85
2022/06/29 10:45:09;;;;;;;3.38;0.98;;;;;;;28.95;33.73;101228.59;5003903;28;20041;-85
2022/06/29 10:47:35;;;;;;;3.22;1.02;;;;;;;28.98;31.85;101227.31;5002030;28;20045;-85
2022/06/29 10:50:17;;;;;;;3.70;0.98;;;;;;;28.96;34.18;101221.28;5002952;28;20033;-85
2022/06/29 10:52:46;;;;;;;1.50;0.90;;;;;;;28.82;35.61;101217.00;5003028;28;20040;-85
2022/06/29 10:55:12;;;;;;;2.47;1.05;;;;;;;28.85;33.77;101212.03;5003094;28;20050;-85
2022/06/29 10:57:44;;;;;;;1.60;1.10;;;;;;;28.83;33.18;101211.41;5005169;28;20078;-85
2022/06/29 11:00:30;;;;;;;2.10;1.17;;;;;;;29.14;32.74;101207.72;4999122;28;20031;-82
2022/06/29 11:02:56;;;;;;;4.95;1.10;;;;;;;29.56;33.02;101213.25;5004372;28;20026;-84
2022/06/29 11:05:22;;;;;;;3.97;1.40;;;;;;;29.68;32.17;101206.00;5016319;28;20490;-84
2022/06/29 11:13:31;;;;;;;3.92;1.40;;;;;;;29.16;34.29;101211.03;5002190;28;20172;-84
2022/06/29 11:16:01;;;;;;;1.77;1.00;;;;;;;29.17;33.75;101211.84;5004855;28;20038;-84
2022/06/29 11:18:31;;;;;;;2.55;1.05;;;;;;;29.37;33.89;101200.78;5000516;28;20120;-84
2022/06/29 11:21:04;;;;;;;2.10;1.30;;;;;;;29.17;33.27;101201.00;4999383;28;20080;-85
2022/06/29 11:23:34;;;;;;;4.32;1.30;;;;;;;28.85;33.28;101205.78;5003326;28;20425;-85
2022/06/29 11:26:00;;;;;;;2.08;1.00;;;;;;;28.74;34.76;101199.19;5001778;28;20022;-85
2022/06/29 11:28:36;;;;;;;3.60;1.40;;;;;;;28.55;34.35;101201.06;5002546;28;20491;-85
2022/06/29 11:31:05;;;;;;;3.05;1.20;;;;;;;28.46;34.64;101196.97;5002539;28;20109;-85
2022/06/29 11:33:36;;;;;;;4.00;1.20;;;;;;;28.47;34.73;101187.81;5001431;28;20109;-86
2022/06/29 11:36:26;;;;;;;1.92;1.30;;;;;;;28.68;35.96;101192.78;5012463;28;20022;-85
2022/06/29 11:38:57;;;;;;;3.72;1.27;;;;;;;28.77;35.64;101192.47;5005179;28;20405;-85
2022/06/29 11:41:25;;;;;;;4.32;1.30;;;;;;;28.86;33.67;101193.91;5006541;28;20057;-86